CheckWX is a tool to help pilots better visualize weather data.  It is not intended as a substitute for an official pre-flight weather briefing.

23:42:03 UTC

SBDN TAF
Presidente Prudente Airport
Presidente Prudente, Brazil
TAF SBDN 181550Z 1818/1906 03008KT 9999 SCT045 TX36/1818Z TN25/1905Z TEMPO 1819/1821 SCT035 FEW040TCU RMK PCX

Oct-18@
18:00 UTC

Oct-18 @ 18:00 UTC

Oct-19@
06:00 UTC

Oct-19 @ 06:00 UTC

TAF SBDN 181550Z 1818/1906 03008KT 9999 SCT045 TX36/1818Z TN25/1905Z
Wind
  • 030° at 8 KTS
Cloud Levels
  • Scattered at 4,500' AGL

Oct-18@
19:00 UTC

Oct-18 @ 19:00 UTC

Oct-18@
21:00 UTC

Oct-18 @ 21:00 UTC

TEMPO 1819/1821 SCT035 FEW040TCU RMK PCX

Expired

Cloud Levels
  • Scattered at 3,500' AGL
  • Few at 4,000' AGL